Time;durP1;ratioP1;P1;durP2;ratioP2;P2;SDS_P1;SDS_P2;PMS_P1;PMS_P2;Temp;Humidity;BMP_temperature;BMP_pressure;BME280_temperature;BME280_humidity;BME280_pressure;Samples;Min_cycle;Max_cycle;Signal;HPM_P1;HPM_P2
2024/04/04 00:02:01;;;;;;;5.13;2.40;;;11.60;99.90;;;11.67;100.00;98404.50;5096444;28;20191;-68
2024/04/04 00:04:28;;;;;;;4.73;2.47;;;11.60;99.90;;;11.54;100.00;98408.22;5067731;28;20250;-70
2024/04/04 00:06:54;;;;;;;4.63;2.13;;;11.60;99.90;;;11.55;100.00;98402.00;5067823;28;20968;-69
2024/04/04 00:09:21;;;;;;;5.13;2.40;;;11.60;99.90;;;11.57;100.00;98404.50;5065831;28;20496;-69
2024/04/04 00:11:47;;;;;;;5.37;2.20;;;11.70;99.90;;;11.54;100.00;98402.16;5063629;28;20452;-69
2024/04/04 00:14:12;;;;;;;6.00;2.30;;;11.60;99.90;;;11.53;100.00;98403.91;5069576;28;20211;-69
2024/04/04 00:16:38;;;;;;;3.70;2.20;;;11.60;99.90;;;11.56;100.00;98406.28;5072089;28;20209;-69
2024/04/04 00:19:04;;;;;;;8.10;2.30;;;12.10;99.90;;;11.63;100.00;98396.03;5067012;28;20228;-69
2024/04/04 00:21:30;;;;;;;4.83;2.37;;;11.60;99.90;;;11.68;100.00;98401.72;5091469;28;20219;-70
2024/04/04 00:23:59;;;;;;;5.50;2.23;;;11.60;99.90;;;11.70;100.00;98404.22;5073873;28;20844;-69
2024/04/04 00:26:25;;;;;;;7.17;2.00;;;11.60;99.90;;;11.74;100.00;98401.16;5071542;28;20536;-69
2024/04/04 00:28:51;;;;;;;5.33;2.60;;;11.70;99.90;;;11.74;100.00;98397.69;5072614;28;20450;-70
2024/04/04 00:31:17;;;;;;;6.77;2.30;;;11.70;99.90;;;11.62;100.00;98399.63;5062625;28;20497;-69
2024/04/04 00:33:43;;;;;;;6.33;2.30;;;11.70;99.90;;;11.72;100.00;98399.63;5069463;28;20200;-70
2024/04/04 00:36:08;;;;;;;4.40;2.20;;;11.60;99.90;;;11.75;100.00;98388.81;5088639;28;20199;-69
2024/04/04 00:38:34;;;;;;;7.07;2.50;;;11.70;99.90;;;11.80;100.00;98389.25;5074615;28;20199;-69
2024/04/04 00:41:01;;;;;;;6.60;2.47;;;11.70;99.90;;;11.86;100.00;98387.91;5085073;28;20685;-70
2024/04/04 00:43:27;;;;;;;3.40;2.07;;;11.70;99.90;;;11.88;100.00;98388.56;5063013;28;20446;-68
2024/04/04 00:45:53;;;;;;;4.10;2.30;;;11.80;99.90;;;11.83;100.00;98381.06;5074405;28;20480;-69
2024/04/04 00:48:21;;;;;;;4.90;2.40;;;11.80;99.90;;;11.83;100.00;98375.81;5075454;28;20205;-70
2024/04/04 00:50:47;;;;;;;3.67;2.20;;;11.80;99.90;;;11.84;100.00;98374.84;5072540;28;20441;-70
2024/04/04 00:53:13;;;;;;;3.80;2.17;;;11.80;99.90;;;11.70;100.00;98373.47;5070241;28;20458;-70
2024/04/04 00:55:39;;;;;;;4.47;2.23;;;11.70;99.90;;;11.73;100.00;98377.63;5067272;28;20458;-69
2024/04/04 00:58:05;;;;;;;3.97;2.30;;;11.70;99.90;;;11.78;100.00;98376.22;5063968;28;20277;-69
2024/04/04 01:00:31;;;;;;;6.30;2.20;;;11.70;99.90;;;11.77;100.00;98381.63;5062246;28;20188;-69
2024/04/04 01:02:57;;;;;;;5.83;2.30;;;11.70;99.90;;;11.81;100.00;98381.19;5057250;28;20486;-69
2024/04/04 01:05:22;;;;;;;5.40;2.47;;;11.80;99.90;;;11.74;100.00;98377.47;5078745;28;20222;-69
2024/04/04 01:07:49;;;;;;;3.70;2.40;;;11.90;99.90;;;11.80;100.00;98374.28;5082697;28;20474;-69
2024/04/04 01:10:15;;;;;;;3.77;2.10;;;11.90;99.90;;;11.80;100.00;98379.53;5064109;28;20344;-70
2024/04/04 01:12:44;;;;;;;6.10;2.37;;;11.80;99.90;;;11.66;100.00;98374.69;5073642;28;20499;-70
2024/04/04 01:15:09;;;;;;;4.50;2.33;;;11.70;99.90;;;11.72;100.00;98366.25;5071459;28;20447;-69
2024/04/04 01:17:35;;;;;;;5.53;2.43;;;11.80;99.90;;;11.76;100.00;98370.28;5074758;28;20579;-69
2024/04/04 01:20:03;;;;;;;4.30;2.03;;;11.80;99.90;;;11.84;100.00;98366.94;5075596;28;20228;-69
2024/04/04 01:22:28;;;;;;;4.57;2.10;;;11.80;99.90;;;11.93;100.00;98363.50;5075582;28;20228;-69
2024/04/04 01:24:54;;;;;;;6.10;2.50;;;11.90;99.90;;;11.84;100.00;98366.94;5067250;28;21060;-70
2024/04/04 01:27:20;;;;;;;8.80;2.53;;;11.90;99.90;;;11.81;100.00;98370.66;5077214;28;20214;-69
2024/04/04 01:29:46;;;;;;;3.83;2.20;;;11.80;99.90;;;11.88;100.00;98368.34;5066937;28;21422;-68
2024/04/04 01:32:11;;;;;;;4.97;2.40;;;11.90;99.90;;;11.83;100.00;98360.03;5068689;28;20266;-70
2024/04/04 01:34:37;;;;;;;6.23;2.40;;;11.90;99.90;;;11.86;100.00;98362.41;5076569;28;20219;-69
2024/04/04 01:37:03;;;;;;;4.03;2.20;;;11.90;99.90;;;11.90;100.00;98361.13;5088210;28;20196;-69
2024/04/04 01:39:29;;;;;;;7.87;2.70;;;11.90;99.90;;;11.72;100.00;98365.44;5071059;28;20192;-69
2024/04/04 01:41:55;;;;;;;6.43;2.47;;;11.80;99.90;;;11.81;100.00;98359.31;5074816;28;20200;-69
2024/04/04 01:44:22;;;;;;;4.67;2.60;;;11.90;99.90;;;11.88;100.00;98349.91;5052726;28;20193;-69
2024/04/04 01:46:48;;;;;;;6.73;2.57;;;11.90;99.90;;;11.89;100.00;98351.59;5073171;28;20474;-69
2024/04/04 01:49:15;;;;;;;5.77;2.50;;;11.90;99.90;;;11.84;100.00;98338.00;5058225;28;20455;-68
2024/04/04 01:51:41;;;;;;;5.53;2.70;;;11.90;99.90;;;11.81;100.00;98344.34;5068190;28;20436;-70
2024/04/04 01:54:10;;;;;;;5.90;2.80;;;11.90;99.90;;;11.95;100.00;98344.94;5067386;28;20525;-68
2024/04/04 01:56:36;;;;;;;8.67;2.90;;;11.90;99.90;;;11.98;100.00;98350.75;5066653;28;20441;-69
2024/04/04 01:59:02;;;;;;;6.30;2.33;;;12.00;99.90;;;12.02;100.00;98351.28;5073092;28;20455;-68
2024/04/04 02:01:28;;;;;;;6.47;2.90;;;12.00;99.90;;;12.09;100.00;98351.53;5066727;28;20483;-70
2024/04/04 02:03:53;;;;;;;6.30;2.50;;;12.00;99.90;;;11.97;100.00;98335.91;5075416;28;20222;-69
2024/04/04 02:06:19;;;;;;;5.53;2.40;;;12.00;99.90;;;11.97;100.00;98341.16;5073842;28;20219;-69
2024/04/04 02:08:45;;;;;;;6.27;2.60;;;12.00;99.90;;;11.93;100.00;98331.09;5072883;28;20235;-69
2024/04/04 02:11:11;;;;;;;8.37;2.90;;;12.00;99.90;;;12.03;100.00;98337.97;5079130;28;20226;-69
2024/04/04 02:13:36;;;;;;;5.70;2.50;;;12.00;99.90;;;12.09;100.00;98335.75;5065097;28;20219;-69
2024/04/04 02:16:02;;;;;;;8.40;2.70;;;12.10;99.90;;;12.04;100.00;98336.16;5073294;28;20197;-68
2024/04/04 02:18:28;;;;;;;4.97;2.87;;;12.10;99.90;;;11.98;100.00;98324.41;5066374;28;20278;-69
2024/04/04 02:20:54;;;;;;;8.50;2.97;;;12.10;99.90;;;12.05;100.00;98329.94;5069890;28;20455;-69
2024/04/04 02:23:19;;;;;;;5.73;2.43;;;12.10;99.90;;;12.04;100.00;98337.00;5076101;28;20271;-68
2024/04/04 02:25:45;;;;;;;7.70;2.30;;;12.10;99.90;;;12.06;100.00;98324.50;5070698;28;20224;-68
2024/04/04 02:28:11;;;;;;;8.37;2.80;;;12.10;99.90;;;12.02;100.00;98328.41;5076551;28;20199;-69
2024/04/04 02:30:37;;;;;;;6.20;2.50;;;12.10;99.90;;;12.00;100.00;98311.94;5067164;28;20193;-69
2024/04/04 02:33:04;;;;;;;6.57;2.50;;;12.10;99.90;;;12.09;100.00;98322.59;5070365;28;20912;-69
2024/04/04 02:35:30;;;;;;;7.67;2.70;;;12.20;99.90;;;12.06;100.00;98319.25;5074087;28;20443;-70
2024/04/04 02:37:57;;;;;;;7.60;2.70;;;12.10;99.90;;;12.13;100.00;98326.56;5086212;28;20962;-70
2024/04/04 02:40:22;;;;;;;6.73;2.40;;;12.70;99.90;;;12.07;100.00;98320.06;5071501;28;20530;-70
2024/04/04 02:42:49;;;;;;;6.67;2.77;;;12.20;99.90;;;12.10;100.00;98318.97;5078046;28;20454;-69
2024/04/04 02:45:14;;;;;;;9.87;2.77;;;12.20;99.90;;;12.12;100.00;98317.84;5071358;28;20193;-69
2024/04/04 02:47:40;;;;;;;9.07;3.20;;;12.20;99.90;;;12.13;100.00;98314.25;5072044;28;20477;-68
2024/04/04 02:50:07;;;;;;;7.10;2.70;;;12.20;99.90;;;12.14;100.00;98312.47;5058194;28;20200;-69
2024/04/04 02:52:33;;;;;;;10.10;2.80;;;12.20;99.90;;;12.14;100.00;98312.47;5075026;28;20682;-70
2024/04/04 02:55:00;;;;;;;6.63;2.60;;;12.20;99.90;;;12.18;100.00;98317.28;5068009;28;20441;-69
2024/04/04 02:57:25;;;;;;;8.23;3.03;;;12.20;99.90;;;12.12;100.00;98317.03;5070311;28;20452;-69
2024/04/04 02:59:51;;;;;;;8.13;2.63;;;12.20;99.90;;;12.17;100.00;98322.66;5072711;28;20439;-71
2024/04/04 03:02:17;;;;;;;8.87;2.53;;;12.80;99.90;;;12.18;100.00;98319.09;5067546;28;20191;-70
2024/04/04 03:04:43;;;;;;;7.90;2.90;;;12.20;99.90;;;12.18;100.00;98319.09;5078909;28;20322;-70
2024/04/04 03:07:08;;;;;;;7.90;2.63;;;12.20;99.90;;;12.08;100.00;98319.13;5060593;28;20253;-70
2024/04/04 03:09:34;;;;;;;8.20;2.60;;;12.20;99.90;;;12.04;100.00;98310.69;5066521;28;20204;-70
2024/04/04 03:12:00;;;;;;;11.23;2.90;;;12.20;99.90;;;12.02;100.00;98294.19;5069421;28;20202;-69
2024/04/04 03:14:25;;;;;;;11.83;2.73;;;12.20;99.90;;;12.04;100.00;98300.16;5071386;28;20195;-69
2024/04/04 03:16:51;;;;;;;8.13;2.67;;;12.20;99.90;;;12.03;100.00;98306.38;5057135;28;20190;-68
2024/04/04 03:19:17;;;;;;;7.27;2.57;;;12.20;99.90;;;12.10;100.00;98303.16;5072897;28;20283;-69
2024/04/04 03:21:43;;;;;;;11.37;2.67;;;12.20;99.90;;;12.13;100.00;98297.63;5061907;28;20193;-70
2024/04/04 03:24:09;;;;;;;7.07;2.93;;;12.20;99.90;;;12.17;100.00;98302.47;5065830;28;20188;-69
2024/04/04 03:26:35;;;;;;;11.30;2.80;;;12.20;99.90;;;12.12;100.00;98302.06;5062368;28;20515;-69
2024/04/04 03:29:01;;;;;;;7.20;2.70;;;12.20;99.90;;;12.15;100.00;98314.09;5096751;28;20233;-69
2024/04/04 03:31:27;;;;;;;15.13;2.70;;;12.20;99.90;;;12.19;100.00;98304.94;5074005;28;20783;-70
2024/04/04 03:33:53;;;;;;;15.00;2.93;;;12.20;99.90;;;12.21;100.00;98298.56;5071557;28;20452;-69
2024/04/04 03:36:20;;;;;;;7.97;2.57;;;12.20;99.90;;;12.10;100.00;98296.09;5058955;28;20439;-70
2024/04/04 03:38:46;;;;;;;11.30;3.03;;;12.20;99.90;;;12.16;100.00;98299.97;5071039;28;20446;-70
2024/04/04 03:41:12;;;;;;;6.40;2.60;;;12.20;99.90;;;12.19;100.00;98307.56;5069755;28;20461;-70
2024/04/04 03:43:37;;;;;;;9.10;2.70;;;12.20;99.90;;;12.22;100.00;98296.75;5071743;28;20452;-70
2024/04/04 03:46:05;;;;;;;12.93;3.43;;;12.20;99.90;;;12.15;100.00;98301.75;5067661;28;20223;-70
2024/04/04 03:48:32;;;;;;;10.73;3.60;;;12.20;99.90;;;12.07;100.00;98299.03;5075532;28;20252;-70
2024/04/04 03:50:58;;;;;;;7.80;2.90;;;12.20;99.90;;;12.12;100.00;98294.16;5072309;28;20457;-69
2024/04/04 03:53:23;;;;;;;9.57;3.30;;;12.20;99.90;;;12.04;99.99;98300.16;5070245;28;20455;-68
2024/04/04 03:55:49;;;;;;;10.77;2.90;;;12.20;99.90;;;12.16;99.87;98294.69;5057840;28;20199;-69
2024/04/04 03:58:16;;;;;;;8.20;2.40;;;12.30;99.90;;;12.24;99.35;98300.06;5070676;28;20196;-70
2024/04/04 04:00:42;;;;;;;12.00;3.07;;;12.30;99.90;;;12.21;99.34;98293.28;5066186;28;20192;-70
2024/04/04 04:03:08;;;;;;;9.70;3.40;;;12.30;99.90;;;12.20;99.93;98288.16;5059718;28;20536;-68
2024/04/04 04:05:34;;;;;;;7.87;2.80;;;12.30;99.90;;;12.19;100.00;98282.06;5074858;28;20392;-70
2024/04/04 04:08:00;;;;;;;12.93;3.60;;;12.30;99.90;;;12.13;100.00;98279.19;5071278;28;20476;-70
2024/04/04 04:10:30;;;;;;;10.13;3.00;;;12.30;99.90;;;12.23;99.88;98269.44;5069577;28;20638;-70
2024/04/04 04:12:57;;;;;;;9.57;3.70;;;12.30;99.90;;;12.16;100.00;98271.00;5070042;28;20641;-69
2024/04/04 04:15:25;;;;;;;9.63;2.83;;;12.20;99.90;;;12.22;100.00;98276.50;5072703;28;21005;-70
2024/04/04 04:17:51;;;;;;;9.00;3.00;;;12.30;99.90;;;12.20;100.00;98275.00;5072751;28;20488;-70
2024/04/04 04:23:01;;;;;;;10.70;2.90;;;12.30;99.90;;;12.28;99.51;98272.47;5070102;28;20444;-70
2024/04/04 04:25:27;;;;;;;9.40;2.90;;;12.30;99.90;;;12.23;99.99;98282.59;5060493;28;20525;-70
2024/04/04 04:27:52;;;;;;;12.97;3.17;;;12.30;99.90;;;12.18;100.00;98279.59;5068205;28;20830;-70
2024/04/04 04:30:18;;;;;;;8.97;3.07;;;12.30;99.90;;;12.07;100.00;98272.69;5071710;28;20445;-69
2024/04/04 04:32:44;;;;;;;12.67;3.37;;;12.20;99.90;;;12.13;100.00;98287.09;5067619;28;20188;-68
2024/04/04 04:35:10;;;;;;;9.27;3.40;;;12.20;99.90;;;12.04;100.00;98292.25;5070772;28;20554;-70
2024/04/04 04:37:35;;;;;;;10.87;2.80;;;12.20;99.90;;;12.08;100.00;98286.72;5075333;28;20215;-70
2024/04/04 04:40:01;;;;;;;10.30;2.87;;;12.20;99.90;;;12.00;100.00;98277.72;5089911;28;20188;-70
2024/04/04 04:42:29;;;;;;;9.77;3.07;;;12.20;99.90;;;12.09;100.00;98285.72;5071978;28;20207;-69
2024/04/04 04:44:56;;;;;;;11.50;2.60;;;12.20;99.90;;;12.13;100.00;98284.44;5072853;28;20443;-69
2024/04/04 04:47:21;;;;;;;7.63;2.73;;;12.20;99.90;;;12.09;100.00;98285.72;5069861;28;20593;-68
2024/04/04 04:49:50;;;;;;;9.03;3.43;;;12.20;99.90;;;12.09;100.00;98283.09;5072959;28;20475;-70
2024/04/04 04:52:17;;;;;;;10.43;3.03;;;12.20;99.90;;;12.06;100.00;98269.22;5074379;28;20213;-69
2024/04/04 04:54:43;;;;;;;9.67;4.03;;;12.20;99.90;;;12.03;100.00;98263.44;5072523;28;20512;-70
2024/04/04 04:57:09;;;;;;;13.33;3.67;;;12.20;99.90;;;12.04;100.00;98262.44;5075221;28;20457;-68
2024/04/04 04:59:35;;;;;;;10.97;3.33;;;12.20;99.90;;;12.08;100.00;98265.66;5075833;28;20461;-68
2024/04/04 05:02:02;;;;;;;8.63;3.03;;;12.20;99.90;;;12.16;100.00;98263.09;5071032;28;20185;-69
2024/04/04 05:04:27;;;;;;;7.20;3.10;;;12.20;99.90;;;12.06;100.00;98266.59;5073288;28;20223;-68
2024/04/04 05:06:55;;;;;;;9.17;3.40;;;12.20;99.90;;;12.09;100.00;98268.13;5053167;28;20524;-69
2024/04/04 05:09:21;;;;;;;9.97;3.27;;;12.20;99.90;;;12.12;99.83;98262.56;5067043;28;20196;-68
2024/04/04 05:11:47;;;;;;;12.03;3.33;;;12.20;99.90;;;12.01;100.00;98257.47;5058659;28;20461;-68
2024/04/04 05:14:12;;;;;;;14.27;3.27;;;12.20;99.90;;;12.08;100.00;98255.13;5051973;28;20469;-68
2024/04/04 05:16:41;;;;;;;11.70;3.40;;;12.20;99.90;;;12.08;99.80;98248.03;5050362;28;20198;-68
2024/04/04 05:19:08;;;;;;;11.37;3.27;;;12.20;99.90;;;12.15;99.43;98241.22;5057202;28;20238;-69
2024/04/04 05:21:34;;;;;;;7.57;2.90;;;12.20;99.90;;;12.14;99.77;98239.56;5084345;28;20689;-69
2024/04/04 05:24:00;;;;;;;10.60;2.70;;;12.20;99.90;;;12.18;100.00;98238.28;5050580;28;20450;-68
2024/04/04 05:26:27;;;;;;;9.30;2.70;;;12.30;99.90;;;12.05;100.00;98245.69;5052508;28;20224;-68
2024/04/04 05:28:55;;;;;;;7.57;3.10;;;12.20;99.90;;;12.11;100.00;98245.13;5053174;28;21040;-68
2024/04/04 05:31:24;;;;;;;11.47;3.50;;;12.20;99.90;;;12.02;100.00;98248.63;5069108;28;21130;-67
2024/04/04 05:33:52;;;;;;;11.17;3.10;;;12.20;99.90;;;11.98;100.00;98241.97;5058626;28;20499;-69
2024/04/04 05:36:17;;;;;;;9.83;3.20;;;12.20;99.90;;;12.01;100.00;98247.81;5088496;28;20464;-67
2024/04/04 05:38:43;;;;;;;14.57;3.20;;;12.10;99.90;;;11.92;100.00;98243.41;5068029;28;20444;-68
2024/04/04 05:41:09;;;;;;;11.43;3.10;;;12.10;99.90;;;12.04;100.00;98236.97;5057460;28;20730;-68
2024/04/04 05:43:35;;;;;;;14.33;3.60;;;12.10;99.90;;;11.99;100.00;98223.41;5052691;28;20195;-68
2024/04/04 05:46:03;;;;;;;8.87;3.20;;;12.10;99.90;;;11.98;100.00;98231.44;5061678;28;20450;-68
2024/04/04 05:48:29;;;;;;;15.80;3.50;;;12.10;99.90;;;12.00;100.00;98234.78;5035373;28;20433;-68
2024/04/04 05:51:03;;;;;;;12.57;3.27;;;12.10;99.90;;;11.98;100.00;98232.31;5071478;28;20531;-69
2024/04/04 05:53:28;;;;;;;11.80;3.70;;;12.10;99.90;;;12.03;100.00;98231.84;5057082;28;20188;-68
2024/04/04 05:55:54;;;;;;;11.33;3.50;;;12.10;99.90;;;12.11;100.00;98228.50;5053348;28;20522;-69
2024/04/04 05:58:20;;;;;;;11.93;3.43;;;12.20;99.90;;;11.98;100.00;98229.66;5054602;28;20258;-69
2024/04/04 06:00:45;;;;;;;11.10;3.07;;;12.10;99.90;;;12.00;100.00;98230.31;5050678;28;20223;-68
2024/04/04 06:03:11;;;;;;;12.97;3.40;;;12.10;99.90;;;11.97;100.00;98225.34;5049717;28;20255;-67
2024/04/04 06:05:37;;;;;;;7.60;2.90;;;12.10;99.90;;;11.92;100.00;98234.69;5051169;28;20752;-67
2024/04/04 06:08:03;;;;;;;8.77;3.10;;;12.10;99.90;;;11.95;100.00;98229.97;5067347;28;20220;-70
2024/04/04 06:10:29;;;;;;;12.43;3.00;;;12.10;99.90;;;12.00;100.00;98242.66;5059783;28;20196;-69
2024/04/04 06:12:54;;;;;;;11.27;3.33;;;12.20;99.90;;;12.02;100.00;98233.66;5070723;28;20480;-68
2024/04/04 06:15:20;;;;;;;12.53;3.50;;;12.10;99.90;;;11.94;100.00;98230.91;5055524;28;20230;-70
2024/04/04 06:17:46;;;;;;;10.30;3.80;;;12.20;99.90;;;11.95;100.00;98243.13;5055711;28;20199;-67
2024/04/04 06:20:12;;;;;;;8.30;3.00;;;12.10;99.90;;;11.96;100.00;98243.94;5044728;28;21071;-68
2024/04/04 06:22:38;;;;;;;11.07;3.20;;;12.10;99.90;;;12.01;100.00;98242.53;5057819;28;20289;-68
2024/04/04 06:25:04;;;;;;;11.40;3.40;;;12.10;99.90;;;11.95;100.00;98242.28;5060027;28;20198;-69
2024/04/04 06:27:29;;;;;;;10.33;2.90;;;12.10;99.90;;;11.97;100.00;98253.47;5062858;28;20314;-69
2024/04/04 06:29:55;;;;;;;12.43;4.00;;;12.10;99.90;;;11.98;100.00;98252.50;5080014;28;20454;-68
2024/04/04 06:32:21;;;;;;;14.50;3.80;;;12.10;99.90;;;11.94;100.00;98241.44;5055989;28;20264;-68
2024/04/04 06:34:47;;;;;;;14.10;4.00;;;12.10;99.90;;;11.98;100.00;98237.56;5050520;28;20201;-68
2024/04/04 06:37:16;;;;;;;14.23;3.57;;;12.10;99.90;;;12.06;100.00;98239.47;5055042;28;20257;-68
2024/04/04 06:39:43;;;;;;;12.80;3.70;;;12.10;99.90;;;12.00;100.00;98246.13;5073481;28;20450;-68
2024/04/04 06:42:08;;;;;;;10.40;3.50;;;12.10;99.90;;;12.06;100.00;98250.81;5064432;28;20445;-68
2024/04/04 06:44:34;;;;;;;14.77;3.80;;;12.20;99.90;;;12.11;100.00;98253.03;5058557;28;20907;-67
2024/04/04 06:47:00;;;;;;;12.77;3.50;;;12.20;99.90;;;12.10;100.00;98250.53;5057960;28;20256;-68
2024/04/04 06:49:26;;;;;;;12.13;3.47;;;12.20;99.90;;;12.00;100.00;98269.00;5050087;28;20194;-69
2024/04/04 06:51:53;;;;;;;14.97;3.70;;;12.20;99.90;;;12.01;100.00;98258.34;5052280;28;20197;-69
2024/04/04 06:54:19;;;;;;;11.53;3.93;;;12.20;99.90;;;12.03;100.00;98258.16;5052483;28;20196;-69
2024/04/04 06:56:44;;;;;;;9.27;3.50;;;12.20;99.90;;;12.16;100.00;98265.72;5073134;28;20469;-68
2024/04/04 06:59:10;;;;;;;11.87;3.80;;;12.20;99.90;;;12.04;100.00;98263.31;5047090;28;20907;-68
2024/04/04 07:01:36;;;;;;;10.93;4.13;;;12.20;99.90;;;11.95;100.00;98264.16;5067661;28;20206;-67
2024/04/04 07:04:03;;;;;;;18.83;4.43;;;12.20;99.90;;;11.95;100.00;98247.56;5046228;28;20216;-68
2024/04/04 07:06:29;;;;;;;8.80;3.70;;;12.10;99.90;;;12.00;100.00;98256.66;5050026;28;20219;-69
2024/04/04 07:08:55;;;;;;;9.97;3.83;;;12.20;99.90;;;11.93;100.00;98267.91;5051265;28;20942;-68
2024/04/04 07:11:21;;;;;;;17.53;4.10;;;12.10;99.90;;;11.97;100.00;98256.94;5057797;28;24772;-68
2024/04/04 07:13:47;;;;;;;9.40;3.63;;;12.10;99.90;;;11.93;100.00;98265.28;5053037;28;21325;-70
2024/04/04 07:16:12;;;;;;;17.07;4.30;;;12.10;99.90;;;12.09;100.00;98276.03;5057175;28;20448;-69
2024/04/04 07:18:39;;;;;;;17.57;3.77;;;12.10;99.90;;;11.97;100.00;98272.72;5090449;28;20237;-67
2024/04/04 07:21:06;;;;;;;10.50;4.00;;;12.10;99.90;;;11.91;100.00;98270.69;5061329;28;20218;-70
2024/04/04 07:23:33;;;;;;;12.57;3.57;;;12.10;99.90;;;11.92;100.00;98263.63;5053889;28;20442;-69
2024/04/04 07:25:58;;;;;;;17.33;4.33;;;12.10;99.90;;;12.01;100.00;98255.69;5051134;28;20453;-70
2024/04/04 07:28:24;;;;;;;10.20;3.70;;;12.10;99.90;;;11.94;100.00;98262.50;5056843;28;20488;-70
2024/04/04 07:30:50;;;;;;;13.77;3.83;;;12.10;99.90;;;11.94;100.00;98274.81;5061848;28;20196;-69
2024/04/04 07:33:16;;;;;;;9.67;3.87;;;12.10;99.90;;;11.88;100.00;98263.06;5051586;28;20482;-70
2024/04/04 07:35:43;;;;;;;8.77;3.70;;;12.10;99.90;;;11.97;100.00;98271.91;5056074;28;20453;-69
2024/04/04 07:38:10;;;;;;;10.47;3.60;;;12.10;99.90;;;11.96;100.00;98268.44;5043498;28;20514;-68
2024/04/04 07:40:40;;;;;;;14.83;4.00;;;12.10;99.90;;;11.93;100.00;98281.91;5053613;28;20469;-69
2024/04/04 07:43:08;;;;;;;11.17;3.43;;;12.20;99.90;;;11.88;100.00;98265.69;5053695;28;20905;-69
2024/04/04 07:45:38;;;;;;;13.50;3.40;;;12.10;99.90;;;11.86;100.00;98266.84;5054067;28;20463;-69
2024/04/04 07:48:08;;;;;;;15.67;3.83;;;12.10;99.90;;;11.95;100.00;98274.69;5060405;28;21739;-69
2024/04/04 07:50:34;;;;;;;10.80;3.93;;;12.10;99.90;;;12.01;100.00;98284.66;5056560;28;20446;-69
2024/04/04 07:53:00;;;;;;;10.33;3.77;;;12.10;99.90;;;12.01;100.00;98283.78;5054829;28;20530;-69
2024/04/04 07:55:25;;;;;;;10.33;3.80;;;12.10;99.90;;;12.00;100.00;98293.50;5056808;28;20472;-69
2024/04/04 07:57:51;;;;;;;13.27;3.90;;;12.10;99.90;;;11.86;100.00;98290.53;5061531;28;20473;-69
2024/04/04 08:00:18;;;;;;;11.63;3.70;;;12.10;99.90;;;11.97;100.00;98299.06;5053790;28;20197;-68
2024/04/04 08:02:45;;;;;;;8.13;3.40;;;12.10;99.90;;;12.01;100.00;98289.06;5052461;28;20504;-69
2024/04/04 08:05:11;;;;;;;9.10;3.93;;;12.10;99.90;;;12.01;100.00;98302.22;5058628;28;20567;-68
2024/04/04 08:07:36;;;;;;;9.63;3.23;;;12.10;99.90;;;12.08;100.00;98299.88;5062693;28;20558;-67
2024/04/04 08:10:05;;;;;;;8.27;3.10;;;12.10;99.90;;;11.90;100.00;98297.16;5052777;28;20218;-69
2024/04/04 08:12:33;;;;;;;10.20;3.30;;;12.10;99.90;;;11.97;100.00;98298.22;5074987;28;20274;-68
2024/04/04 08:14:59;;;;;;;15.30;3.40;;;12.10;99.90;;;11.94;100.00;98301.97;5083399;28;21210;-68
2024/04/04 08:17:25;;;;;;;11.67;3.10;;;12.10;99.90;;;11.94;100.00;98306.41;5053684;28;20483;-67
2024/04/04 08:19:51;;;;;;;11.07;3.30;;;13.80;99.90;;;11.92;100.00;98306.56;5055173;28;20284;-67
2024/04/04 08:22:17;;;;;;;10.03;3.33;;;12.10;99.90;;;11.92;100.00;98318.91;5062052;28;20454;-68
2024/04/04 08:24:42;;;;;;;5.37;2.80;;;12.00;99.90;;;11.87;100.00;98316.69;5057848;28;20360;-68
2024/04/04 08:27:08;;;;;;;8.47;3.10;;;12.00;99.90;;;11.84;100.00;98316.94;5055737;28;20200;-67
2024/04/04 08:29:34;;;;;;;14.57;3.43;;;12.00;99.90;;;11.85;100.00;98315.97;5044238;28;20191;-68
2024/04/04 08:32:02;;;;;;;7.83;3.10;;;12.00;99.90;;;11.87;100.00;98336.91;5058041;28;20198;-69
2024/04/04 08:34:30;;;;;;;10.77;3.10;;;12.00;99.90;;;11.88;100.00;98322.78;5064991;28;20171;-68
2024/04/04 08:36:56;;;;;;;9.63;3.03;;;12.00;99.90;;;11.88;100.00;98323.59;5051125;28;20454;-68
2024/04/04 08:39:22;;;;;;;9.70;3.63;;;12.00;99.90;;;11.95;100.00;98331.78;5058480;28;20482;-68
2024/04/04 08:41:47;;;;;;;12.10;4.30;;;12.00;99.90;;;11.96;100.00;98331.63;5054949;28;20206;-69
2024/04/04 08:44:14;;;;;;;8.90;3.20;;;12.10;99.90;;;11.91;100.00;98325.94;5047587;28;20191;-70
2024/04/04 08:46:41;;;;;;;8.50;3.10;;;12.10;99.90;;;12.01;100.00;98345.19;5084930;28;20474;-67
2024/04/04 08:49:08;;;;;;;10.43;3.87;;;12.10;99.90;;;11.99;100.00;98339.22;5080968;28;20995;-71
2024/04/04 08:51:34;;;;;;;9.10;3.30;;;12.10;99.90;;;11.90;100.00;98340.09;5054270;28;20542;-68
2024/04/04 08:53:59;;;;;;;7.47;3.00;;;12.00;99.90;;;11.94;100.00;98330.91;5055583;28;20510;-67
2024/04/04 08:56:26;;;;;;;13.53;3.73;;;12.10;99.90;;;11.89;100.00;98340.25;5085355;28;20221;-69
2024/04/04 08:58:52;;;;;;;9.40;3.33;;;12.00;99.90;;;11.90;100.00;98341.91;5085860;28;20302;-67
2024/04/04 09:01:18;;;;;;;12.80;3.03;;;12.00;99.90;;;11.89;100.00;98335.81;5056291;28;21305;-67
2024/04/04 09:03:44;;;;;;;12.10;3.23;;;12.10;99.90;;;11.93;100.00;98344.25;5055164;28;20195;-68
2024/04/04 09:06:12;;;;;;;8.13;3.23;;;12.00;99.90;;;11.97;100.00;98343.81;5054074;28;20458;-68
2024/04/04 09:08:38;;;;;;;8.90;3.73;;;12.10;99.90;;;11.97;100.00;98356.97;5056915;28;20195;-68
2024/04/04 09:11:03;;;;;;;8.67;3.10;;;12.10;99.90;;;11.88;100.00;98341.19;5054114;28;20458;-68
2024/04/04 09:13:32;;;;;;;11.53;3.27;;;12.00;99.90;;;11.81;100.00;98354.06;5052308;28;20205;-68
2024/04/04 09:16:02;;;;;;;8.57;2.93;;;12.00;99.90;;;11.90;100.00;98342.72;5052225;28;20523;-68
2024/04/04 09:18:29;;;;;;;12.43;2.83;;;12.00;99.90;;;11.90;100.00;98344.53;5044488;28;20452;-67
2024/04/04 09:20:59;;;;;;;8.70;3.10;;;12.00;99.90;;;11.81;100.00;98344.34;5052836;28;20458;-68
2024/04/04 09:23:25;;;;;;;8.80;2.93;;;12.00;99.90;;;11.90;100.00;98349.78;5059552;28;20475;-68
2024/04/04 09:25:51;;;;;;;6.10;3.27;;;12.00;99.90;;;11.84;100.00;98345.88;5053095;28;20434;-68
2024/04/04 09:28:20;;;;;;;9.27;3.60;;;12.00;99.90;;;11.98;100.00;98348.09;5062470;28;20473;-67
2024/04/04 09:30:49;;;;;;;9.70;2.90;;;12.00;99.90;;;11.98;100.00;98347.25;5044871;28;20454;-68
2024/04/04 09:33:18;;;;;;;6.37;2.80;;;12.00;99.90;;;12.00;100.00;98348.78;5060261;28;20454;-68
2024/04/04 09:35:46;;;;;;;8.43;3.63;;;12.10;99.90;;;12.03;100.00;98348.50;5058155;28;20457;-68
2024/04/04 09:38:12;;;;;;;8.03;3.20;;;12.10;99.90;;;11.98;100.00;98349.88;5060767;28;20453;-68
2024/04/04 09:40:38;;;;;;;11.40;3.70;;;12.10;99.90;;;12.06;100.00;98350.84;5062272;28;20956;-68
2024/04/04 09:43:05;;;;;;;8.50;2.90;;;12.10;99.90;;;11.92;100.00;98343.41;5050768;28;20462;-68
2024/04/04 09:45:30;;;;;;;13.00;4.30;;;12.10;99.90;;;11.85;100.00;98334.41;5057564;28;20458;-68
2024/04/04 09:47:56;;;;;;;11.03;2.73;;;12.00;99.90;;;11.98;100.00;98358.63;5060810;28;20474;-69
2024/04/04 09:50:22;;;;;;;10.70;3.07;;;12.10;99.90;;;11.91;100.00;98354.91;5054598;28;20967;-69
2024/04/04 09:52:48;;;;;;;7.90;3.20;;;12.10;99.90;;;12.06;100.00;98345.56;5059447;28;20479;-69
2024/04/04 09:55:19;;;;;;;10.30;3.20;;;12.10;99.90;;;12.16;100.00;98344.72;5059574;28;20230;-69
2024/04/04 09:57:46;;;;;;;6.90;3.23;;;12.20;99.90;;;12.09;100.00;98356.81;5057340;28;20446;-69
2024/04/04 10:00:19;;;;;;;8.10;3.20;;;12.20;99.90;;;12.00;100.00;98364.56;5055042;28;20475;-68
2024/04/04 10:02:57;;;;;;;9.27;2.80;;;12.20;99.90;;;12.08;100.00;98357.78;5063996;28;20553;-69
2024/04/04 10:05:34;;;;;;;6.43;2.87;;;12.20;99.90;;;12.06;100.00;98344.75;5049312;28;20501;-68
2024/04/04 10:08:08;;;;;;;8.23;3.10;;;12.20;99.90;;;12.11;100.00;98358.31;5083720;28;20487;-68
2024/04/04 10:10:34;;;;;;;10.23;3.53;;;12.30;99.90;;;12.18;100.00;98342.78;5052396;28;20454;-67